sensor_id;sensor_type;location;lat;lon;timestamp;pressure;altitude;pressure_sealevel;temperature;humidity
64388;BME280;50709;52.648;4.764;2024-03-02T00:00:50;99718.91;;;11.33;63.27
64388;BME280;50709;52.648;4.764;2024-03-02T00:03:16;99712.63;;;10.94;63.09
64388;BME280;50709;52.648;4.764;2024-03-02T00:05:42;99723.75;;;11.06;62.61
64388;BME280;50709;52.648;4.764;2024-03-02T00:08:07;99735.78;;;10.62;62.95
64388;BME280;50709;52.648;4.764;2024-03-02T00:10:38;99750.34;;;11.28;63.80
64388;BME280;50709;52.648;4.764;2024-03-02T00:13:07;99739.81;;;11.76;65.13
64388;BME280;50709;52.648;4.764;2024-03-02T00:17:58;99752.44;;;12.00;64.15
64388;BME280;50709;52.648;4.764;2024-03-02T00:20:24;99771.50;;;12.06;62.78
64388;BME280;50709;52.648;4.764;2024-03-02T00:23:02;99745.56;;;11.95;64.54
64388;BME280;50709;52.648;4.764;2024-03-02T00:25:38;99768.34;;;11.89;63.57
64388;BME280;50709;52.648;4.764;2024-03-02T00:28:05;99766.16;;;12.13;63.93
64388;BME280;50709;52.648;4.764;2024-03-02T00:33:18;99770.44;;;11.73;65.35
64388;BME280;50709;52.648;4.764;2024-03-02T00:35:45;99788.00;;;11.65;65.52
64388;BME280;50709;52.648;4.764;2024-03-02T00:38:10;99789.66;;;11.70;66.60
64388;BME280;50709;52.648;4.764;2024-03-02T00:40:36;99782.88;;;11.60;66.41
64388;BME280;50709;52.648;4.764;2024-03-02T00:43:02;99788.63;;;11.77;67.00
64388;BME280;50709;52.648;4.764;2024-03-02T00:45:31;99775.88;;;11.62;67.25
64388;BME280;50709;52.648;4.764;2024-03-02T00:47:57;99805.81;;;11.91;68.16
64388;BME280;50709;52.648;4.764;2024-03-02T00:50:22;99808.53;;;11.39;67.98
64388;BME280;50709;52.648;4.764;2024-03-02T00:52:48;99821.09;;;11.66;69.40
64388;BME280;50709;52.648;4.764;2024-03-02T00:55:14;99816.91;;;11.58;68.66
64388;BME280;50709;52.648;4.764;2024-03-02T00:57:39;99806.09;;;11.77;70.05
64388;BME280;50709;52.648;4.764;2024-03-02T01:00:06;99807.06;;;11.73;68.86
64388;BME280;50709;52.648;4.764;2024-03-02T01:02:34;99811.50;;;11.18;70.31
64388;BME280;50709;52.648;4.764;2024-03-02T01:04:59;99811.38;;;11.27;69.75
64388;BME280;50709;52.648;4.764;2024-03-02T01:07:25;99809.72;;;11.20;70.58
64388;BME280;50709;52.648;4.764;2024-03-02T01:09:50;99812.69;;;11.51;70.21
64388;BME280;50709;52.648;4.764;2024-03-02T01:12:16;99790.66;;;11.13;70.96
64388;BME280;50709;52.648;4.764;2024-03-02T01:14:41;99823.41;;;10.83;71.31
64388;BME280;50709;52.648;4.764;2024-03-02T01:17:06;99814.81;;;10.74;70.75
64388;BME280;50709;52.648;4.764;2024-03-02T01:19:32;99820.16;;;11.23;70.78
64388;BME280;50709;52.648;4.764;2024-03-02T01:21:57;99822.78;;;11.20;71.75
64388;BME280;50709;52.648;4.764;2024-03-02T01:24:22;99826.66;;;10.96;70.81
64388;BME280;50709;52.648;4.764;2024-03-02T01:26:48;99821.34;;;11.02;70.92
64388;BME280;50709;52.648;4.764;2024-03-02T01:29:13;99812.47;;;11.14;70.99
64388;BME280;50709;52.648;4.764;2024-03-02T01:31:38;99820.03;;;11.29;71.71
64388;BME280;50709;52.648;4.764;2024-03-02T01:34:07;99812.00;;;11.40;71.25
64388;BME280;50709;52.648;4.764;2024-03-02T01:36:33;99789.50;;;11.31;71.08
64388;BME280;50709;52.648;4.764;2024-03-02T01:38:59;99801.84;;;11.23;70.82
64388;BME280;50709;52.648;4.764;2024-03-02T01:41:24;99803.94;;;11.01;71.17
64388;BME280;50709;52.648;4.764;2024-03-02T01:43:50;99815.69;;;11.28;72.06
64388;BME280;50709;52.648;4.764;2024-03-02T01:46:15;99805.56;;;11.08;71.13
64388;BME280;50709;52.648;4.764;2024-03-02T01:48:41;99818.94;;;11.41;72.04
64388;BME280;50709;52.648;4.764;2024-03-02T01:51:06;99822.75;;;11.23;71.89
64388;BME280;50709;52.648;4.764;2024-03-02T01:53:32;99816.06;;;11.05;71.94
64388;BME280;50709;52.648;4.764;2024-03-02T01:55:58;99833.16;;;11.26;71.41
64388;BME280;50709;52.648;4.764;2024-03-02T01:58:23;99844.19;;;10.89;71.73
64388;BME280;50709;52.648;4.764;2024-03-02T02:00:48;99848.00;;;10.66;70.53
64388;BME280;50709;52.648;4.764;2024-03-02T02:03:14;99841.13;;;11.18;70.34
64388;BME280;50709;52.648;4.764;2024-03-02T02:05:42;99860.22;;;11.22;71.10
64388;BME280;50709;52.648;4.764;2024-03-02T02:08:07;99858.91;;;10.96;71.03
64388;BME280;50709;52.648;4.764;2024-03-02T02:10:32;99863.06;;;11.06;70.67
64388;BME280;50709;52.648;4.764;2024-03-02T02:12:58;99848.56;;;11.41;69.44
64388;BME280;50709;52.648;4.764;2024-03-02T02:15:27;99851.81;;;11.03;69.26
64388;BME280;50709;52.648;4.764;2024-03-02T02:17:53;99863.88;;;11.11;70.61
64388;BME280;50709;52.648;4.764;2024-03-02T02:20:19;99854.34;;;11.07;70.01
64388;BME280;50709;52.648;4.764;2024-03-02T02:23:00;99851.59;;;10.57;70.91
64388;BME280;50709;52.648;4.764;2024-03-02T02:25:27;99862.25;;;10.40;72.08
64388;BME280;50709;52.648;4.764;2024-03-02T02:27:53;99887.78;;;10.15;71.73
64388;BME280;50709;52.648;4.764;2024-03-02T02:30:23;99872.03;;;10.21;71.23
64388;BME280;50709;52.648;4.764;2024-03-02T02:32:49;99873.16;;;9.99;71.22
64388;BME280;50709;52.648;4.764;2024-03-02T02:35:14;99870.75;;;9.82;71.68
64388;BME280;50709;52.648;4.764;2024-03-02T02:37:40;99859.13;;;10.10;71.65
64388;BME280;50709;52.648;4.764;2024-03-02T02:40:06;99873.06;;;10.06;71.99
64388;BME280;50709;52.648;4.764;2024-03-02T02:42:31;99856.47;;;10.12;72.45
64388;BME280;50709;52.648;4.764;2024-03-02T02:44:56;99874.41;;;10.43;71.92
64388;BME280;50709;52.648;4.764;2024-03-02T02:47:22;99867.97;;;9.97;71.45
64388;BME280;50709;52.648;4.764;2024-03-02T02:49:47;99880.72;;;9.39;70.85
64388;BME280;50709;52.648;4.764;2024-03-02T02:52:13;99866.13;;;10.08;72.16
64388;BME280;50709;52.648;4.764;2024-03-02T02:54:38;99876.31;;;10.29;71.52
64388;BME280;50709;52.648;4.764;2024-03-02T02:57:03;99871.13;;;10.24;71.25
64388;BME280;50709;52.648;4.764;2024-03-02T02:59:29;99874.56;;;10.29;71.62
64388;BME280;50709;52.648;4.764;2024-03-02T03:01:54;99885.19;;;10.10;71.77
64388;BME280;50709;52.648;4.764;2024-03-02T03:04:20;99867.34;;;9.73;71.45
64388;BME280;50709;52.648;4.764;2024-03-02T03:06:45;99876.78;;;9.84;70.73
64388;BME280;50709;52.648;4.764;2024-03-02T03:09:11;99888.41;;;10.37;72.54
64388;BME280;50709;52.648;4.764;2024-03-02T03:11:37;99882.34;;;10.37;71.81
64388;BME280;50709;52.648;4.764;2024-03-02T03:14:02;99871.44;;;10.71;71.04
64388;BME280;50709;52.648;4.764;2024-03-02T03:16:30;99881.97;;;10.65;70.11
64388;BME280;50709;52.648;4.764;2024-03-02T03:18:55;99875.22;;;10.48;70.50
64388;BME280;50709;52.648;4.764;2024-03-02T03:21:21;99879.63;;;10.43;70.95
64388;BME280;50709;52.648;4.764;2024-03-02T03:23:46;99882.53;;;10.17;68.87
64388;BME280;50709;52.648;4.764;2024-03-02T03:26:11;99890.97;;;10.42;70.82
64388;BME280;50709;52.648;4.764;2024-03-02T03:28:37;99899.97;;;10.85;70.91
64388;BME280;50709;52.648;4.764;2024-03-02T03:31:02;99888.06;;;10.65;70.65
64388;BME280;50709;52.648;4.764;2024-03-02T03:33:28;99885.78;;;10.39;70.31
64388;BME280;50709;52.648;4.764;2024-03-02T03:35:54;99887.97;;;10.71;71.13
64388;BME280;50709;52.648;4.764;2024-03-02T03:38:19;99893.09;;;10.79;70.30
64388;BME280;50709;52.648;4.764;2024-03-02T03:40:44;99906.06;;;10.14;71.57
64388;BME280;50709;52.648;4.764;2024-03-02T03:43:10;99884.25;;;10.86;70.49
64388;BME280;50709;52.648;4.764;2024-03-02T03:45:35;99890.25;;;10.26;70.76
64388;BME280;50709;52.648;4.764;2024-03-02T03:48:02;99902.69;;;10.75;70.45
64388;BME280;50709;52.648;4.764;2024-03-02T03:50:27;99897.19;;;10.27;69.94
64388;BME280;50709;52.648;4.764;2024-03-02T03:52:53;99907.75;;;10.18;70.81
64388;BME280;50709;52.648;4.764;2024-03-02T03:55:18;99896.34;;;10.25;71.11
64388;BME280;50709;52.648;4.764;2024-03-02T03:57:44;99911.31;;;10.09;71.25
64388;BME280;50709;52.648;4.764;2024-03-02T04:00:09;99909.50;;;10.16;70.78
64388;BME280;50709;52.648;4.764;2024-03-02T04:02:36;99915.38;;;9.48;70.98
64388;BME280;50709;52.648;4.764;2024-03-02T04:05:01;99908.16;;;9.79;71.36
64388;BME280;50709;52.648;4.764;2024-03-02T04:07:32;99916.25;;;10.38;71.06
64388;BME280;50709;52.648;4.764;2024-03-02T04:09:58;99919.38;;;9.86;71.82
64388;BME280;50709;52.648;4.764;2024-03-02T04:12:23;99908.03;;;9.90;70.95
64388;BME280;50709;52.648;4.764;2024-03-02T04:14:49;99916.00;;;9.76;71.34
64388;BME280;50709;52.648;4.764;2024-03-02T04:17:14;99915.38;;;9.45;71.81
64388;BME280;50709;52.648;4.764;2024-03-02T04:19:39;99912.66;;;9.60;71.79
64388;BME280;50709;52.648;4.764;2024-03-02T04:22:05;99906.69;;;9.46;72.27
64388;BME280;50709;52.648;4.764;2024-03-02T04:24:30;99920.28;;;9.83;72.66
64388;BME280;50709;52.648;4.764;2024-03-02T04:26:56;99913.50;;;9.65;70.54
64388;BME280;50709;52.648;4.764;2024-03-02T04:29:21;99923.13;;;9.57;72.07
64388;BME280;50709;52.648;4.764;2024-03-02T04:31:46;99928.19;;;9.74;71.58
64388;BME280;50709;52.648;4.764;2024-03-02T04:34:12;99929.13;;;10.51;72.07
64388;BME280;50709;52.648;4.764;2024-03-02T04:36:37;99933.06;;;10.06;72.08
64388;BME280;50709;52.648;4.764;2024-03-02T04:39:02;99931.50;;;9.91;72.16
64388;BME280;50709;52.648;4.764;2024-03-02T04:41:28;99930.75;;;9.75;72.45
64388;BME280;50709;52.648;4.764;2024-03-02T04:43:53;99944.47;;;9.99;70.85
64388;BME280;50709;52.648;4.764;2024-03-02T04:46:18;99944.59;;;9.85;70.25
64388;BME280;50709;52.648;4.764;2024-03-02T04:48:44;99943.88;;;9.69;71.84
64388;BME280;50709;52.648;4.764;2024-03-02T04:51:09;99953.31;;;9.83;71.65
64388;BME280;50709;52.648;4.764;2024-03-02T04:53:35;99949.75;;;9.90;71.88
64388;BME280;50709;52.648;4.764;2024-03-02T04:56:01;99952.47;;;9.81;72.23
64388;BME280;50709;52.648;4.764;2024-03-02T04:58:45;99939.16;;;10.08;72.14
64388;BME280;50709;52.648;4.764;2024-03-02T05:01:11;99946.41;;;9.75;72.21
64388;BME280;50709;52.648;4.764;2024-03-02T05:03:36;99950.19;;;9.37;71.29
64388;BME280;50709;52.648;4.764;2024-03-02T05:06:01;99945.69;;;9.58;72.27
64388;BME280;50709;52.648;4.764;2024-03-02T05:08:27;99947.91;;;10.04;72.33
64388;BME280;50709;52.648;4.764;2024-03-02T05:10:52;99952.50;;;9.77;73.40
64388;BME280;50709;52.648;4.764;2024-03-02T05:13:18;99949.38;;;9.29;72.75
64388;BME280;50709;52.648;4.764;2024-03-02T05:15:43;99963.19;;;9.43;72.57
64388;BME280;50709;52.648;4.764;2024-03-02T05:18:09;99967.34;;;9.65;72.19
64388;BME280;50709;52.648;4.764;2024-03-02T05:20:34;99967.28;;;9.74;72.00
64388;BME280;50709;52.648;4.764;2024-03-02T05:22:59;99964.13;;;9.33;71.67
64388;BME280;50709;52.648;4.764;2024-03-02T05:25:25;99983.09;;;9.54;72.04
64388;BME280;50709;52.648;4.764;2024-03-02T05:27:50;99968.41;;;9.45;71.90
64388;BME280;50709;52.648;4.764;2024-03-02T05:30:16;99951.88;;;9.45;72.43
64388;BME280;50709;52.648;4.764;2024-03-02T05:32:41;99956.22;;;9.46;72.24
64388;BME280;50709;52.648;4.764;2024-03-02T05:35:07;99971.41;;;10.00;72.36
64388;BME280;50709;52.648;4.764;2024-03-02T05:37:33;99939.88;;;9.23;72.24
64388;BME280;50709;52.648;4.764;2024-03-02T05:39:59;99971.81;;;9.49;72.73
64388;BME280;50709;52.648;4.764;2024-03-02T05:42:24;99980.53;;;9.49;71.69
64388;BME280;50709;52.648;4.764;2024-03-02T05:44:50;99981.28;;;9.62;72.72
64388;BME280;50709;52.648;4.764;2024-03-02T05:47:15;99986.59;;;9.48;72.25
64388;BME280;50709;52.648;4.764;2024-03-02T05:49:40;99989.25;;;9.43;71.85
64388;BME280;50709;52.648;4.764;2024-03-02T05:52:06;99990.03;;;9.55;72.26
64388;BME280;50709;52.648;4.764;2024-03-02T05:54:32;99996.19;;;9.43;72.27
64388;BME280;50709;52.648;4.764;2024-03-02T05:56:57;100002.25;;;9.47;72.53
64388;BME280;50709;52.648;4.764;2024-03-02T05:59:41;100004.94;;;9.37;72.81
64388;BME280;50709;52.648;4.764;2024-03-02T06:02:06;100005.03;;;9.19;72.57
64388;BME280;50709;52.648;4.764;2024-03-02T06:04:32;99993.81;;;9.07;73.61
64388;BME280;50709;52.648;4.764;2024-03-02T06:06:57;100000.34;;;9.70;72.45
64388;BME280;50709;52.648;4.764;2024-03-02T06:09:23;100009.78;;;9.84;72.17
64388;BME280;50709;52.648;4.764;2024-03-02T06:11:49;100017.72;;;9.70;71.79
64388;BME280;50709;52.648;4.764;2024-03-02T06:14:15;100016.06;;;9.58;72.13
64388;BME280;50709;52.648;4.764;2024-03-02T06:16:40;100019.00;;;9.04;71.03
64388;BME280;50709;52.648;4.764;2024-03-02T06:19:06;100020.47;;;9.50;71.96
64388;BME280;50709;52.648;4.764;2024-03-02T06:21:32;100011.03;;;9.35;72.93
64388;BME280;50709;52.648;4.764;2024-03-02T06:23:57;100010.84;;;9.59;72.39
64388;BME280;50709;52.648;4.764;2024-03-02T06:26:23;100011.03;;;9.33;72.57
64388;BME280;50709;52.648;4.764;2024-03-02T06:28:48;100021.47;;;9.33;72.47
64388;BME280;50709;52.648;4.764;2024-03-02T06:31:13;100021.63;;;8.99;72.71
64388;BME280;50709;52.648;4.764;2024-03-02T06:33:39;100020.53;;;9.42;72.04
64388;BME280;50709;52.648;4.764;2024-03-02T06:36:05;100028.94;;;9.83;72.50
64388;BME280;50709;52.648;4.764;2024-03-02T06:38:33;100010.97;;;9.44;71.56
64388;BME280;50709;52.648;4.764;2024-03-02T06:40:59;100026.72;;;9.24;71.98
64388;BME280;50709;52.648;4.764;2024-03-02T06:43:24;100025.88;;;9.23;70.73
64388;BME280;50709;52.648;4.764;2024-03-02T06:45:50;100026.34;;;9.80;71.88
64388;BME280;50709;52.648;4.764;2024-03-02T06:48:17;100034.50;;;9.32;72.02
64388;BME280;50709;52.648;4.764;2024-03-02T06:50:49;100032.59;;;9.55;71.28
64388;BME280;50709;52.648;4.764;2024-03-02T06:53:15;100033.56;;;9.39;72.01
64388;BME280;50709;52.648;4.764;2024-03-02T06:55:43;100038.69;;;9.57;71.14
64388;BME280;50709;52.648;4.764;2024-03-02T06:58:09;100030.00;;;9.54;73.14
64388;BME280;50709;52.648;4.764;2024-03-02T07:00:35;100027.44;;;9.49;71.63
64388;BME280;50709;52.648;4.764;2024-03-02T07:03:00;100036.00;;;9.67;71.49
64388;BME280;50709;52.648;4.764;2024-03-02T07:05:25;100024.63;;;9.75;70.70
64388;BME280;50709;52.648;4.764;2024-03-02T07:07:51;100028.91;;;9.87;70.43
64388;BME280;50709;52.648;4.764;2024-03-02T07:10:17;100037.59;;;9.86;70.60
64388;BME280;50709;52.648;4.764;2024-03-02T07:12:42;100044.69;;;9.67;70.72
64388;BME280;50709;52.648;4.764;2024-03-02T07:15:10;100049.75;;;9.92;70.81
64388;BME280;50709;52.648;4.764;2024-03-02T07:17:58;100035.13;;;9.69;69.65
64388;BME280;50709;52.648;4.764;2024-03-02T07:20:24;100043.94;;;9.50;70.09
64388;BME280;50709;52.648;4.764;2024-03-02T07:22:49;100035.28;;;9.43;69.41
64388;BME280;50709;52.648;4.764;2024-03-02T07:25:14;100046.59;;;9.39;68.83
64388;BME280;50709;52.648;4.764;2024-03-02T07:27:40;100053.53;;;9.48;69.15
64388;BME280;50709;52.648;4.764;2024-03-02T07:30:06;100052.44;;;9.81;68.95
64388;BME280;50709;52.648;4.764;2024-03-02T07:32:32;100051.69;;;9.60;68.85
64388;BME280;50709;52.648;4.764;2024-03-02T07:34:57;100054.28;;;9.65;69.40
64388;BME280;50709;52.648;4.764;2024-03-02T07:37:23;100050.63;;;9.89;68.79
64388;BME280;50709;52.648;4.764;2024-03-02T07:39:50;100053.47;;;9.52;68.08
64388;BME280;50709;52.648;4.764;2024-03-02T07:42:15;100059.28;;;9.93;67.72
64388;BME280;50709;52.648;4.764;2024-03-02T07:44:41;100070.63;;;9.87;67.40
64388;BME280;50709;52.648;4.764;2024-03-02T07:47:07;100068.53;;;10.36;67.46
64388;BME280;50709;52.648;4.764;2024-03-02T07:49:32;100079.06;;;10.22;67.53
64388;BME280;50709;52.648;4.764;2024-03-02T07:51:57;100068.75;;;10.05;67.76
64388;BME280;50709;52.648;4.764;2024-03-02T07:54:23;100062.91;;;9.73;66.22
64388;BME280;50709;52.648;4.764;2024-03-02T07:56:49;100068.75;;;10.06;68.70
64388;BME280;50709;52.648;4.764;2024-03-02T07:59:14;100079.53;;;9.55;66.22
64388;BME280;50709;52.648;4.764;2024-03-02T08:01:40;100088.69;;;10.15;67.82
64388;BME280;50709;52.648;4.764;2024-03-02T08:04:06;100085.03;;;10.36;66.91
64388;BME280;50709;52.648;4.764;2024-03-02T08:06:32;100089.63;;;10.05;66.02
64388;BME280;50709;52.648;4.764;2024-03-02T08:08:59;100081.06;;;9.86;65.49
64388;BME280;50709;52.648;4.764;2024-03-02T08:11:25;100087.75;;;10.21;66.13
64388;BME280;50709;52.648;4.764;2024-03-02T08:13:52;100093.25;;;9.87;64.37
64388;BME280;50709;52.648;4.764;2024-03-02T08:16:20;100099.19;;;10.06;64.80
64388;BME280;50709;52.648;4.764;2024-03-02T08:18:49;100093.16;;;9.99;65.03
64388;BME280;50709;52.648;4.764;2024-03-02T08:21:15;100084.19;;;10.33;65.38
64388;BME280;50709;52.648;4.764;2024-03-02T08:23:40;100083.47;;;10.14;65.00
64388;BME280;50709;52.648;4.764;2024-03-02T08:26:08;100083.31;;;10.32;65.23
64388;BME280;50709;52.648;4.764;2024-03-02T08:28:34;100093.78;;;10.27;64.48
64388;BME280;50709;52.648;4.764;2024-03-02T08:30:59;100072.63;;;9.48;63.22
64388;BME280;50709;52.648;4.764;2024-03-02T08:33:25;100085.13;;;10.24;64.59
64388;BME280;50709;52.648;4.764;2024-03-02T08:35:50;100090.28;;;10.30;64.19
64388;BME280;50709;52.648;4.764;2024-03-02T08:38:16;100075.06;;;9.73;63.87
64388;BME280;50709;52.648;4.764;2024-03-02T08:40:41;100076.47;;;10.19;63.75
64388;BME280;50709;52.648;4.764;2024-03-02T08:43:07;100070.53;;;10.03;64.03
64388;BME280;50709;52.648;4.764;2024-03-02T08:45:32;100082.44;;;10.36;64.35
64388;BME280;50709;52.648;4.764;2024-03-02T08:47:59;100079.97;;;10.15;63.93
64388;BME280;50709;52.648;4.764;2024-03-02T08:50:25;100064.31;;;10.18;63.63
64388;BME280;50709;52.648;4.764;2024-03-02T08:52:50;100072.84;;;10.34;63.08
64388;BME280;50709;52.648;4.764;2024-03-02T08:55:15;100079.06;;;10.22;61.82
64388;BME280;50709;52.648;4.764;2024-03-02T08:57:41;100085.75;;;10.54;63.43
64388;BME280;50709;52.648;4.764;2024-03-02T09:00:07;100086.13;;;10.07;62.38
64388;BME280;50709;52.648;4.764;2024-03-02T09:02:33;100080.78;;;10.24;63.38
64388;BME280;50709;52.648;4.764;2024-03-02T09:04:59;100091.16;;;10.31;62.63
64388;BME280;50709;52.648;4.764;2024-03-02T09:07:24;100085.69;;;10.62;62.79
64388;BME280;50709;52.648;4.764;2024-03-02T09:09:49;100097.66;;;9.79;62.65
64388;BME280;50709;52.648;4.764;2024-03-02T09:12:15;100070.47;;;10.09;61.92
64388;BME280;50709;52.648;4.764;2024-03-02T09:14:41;100095.47;;;10.39;63.34
64388;BME280;50709;52.648;4.764;2024-03-02T09:17:06;100092.88;;;10.32;62.11
64388;BME280;50709;52.648;4.764;2024-03-02T09:19:32;100091.09;;;10.41;62.90
64388;BME280;50709;52.648;4.764;2024-03-02T09:21:57;100092.69;;;10.55;62.32
64388;BME280;50709;52.648;4.764;2024-03-02T09:24:23;100096.97;;;10.65;62.62
64388;BME280;50709;52.648;4.764;2024-03-02T09:26:49;100098.72;;;10.62;62.35
64388;BME280;50709;52.648;4.764;2024-03-02T09:29:15;100104.81;;;10.62;61.80
64388;BME280;50709;52.648;4.764;2024-03-02T09:31:41;100098.06;;;10.41;61.05
64388;BME280;50709;52.648;4.764;2024-03-02T09:34:06;100102.38;;;10.45;60.67
64388;BME280;50709;52.648;4.764;2024-03-02T09:36:32;100103.59;;;10.94;61.83
64388;BME280;50709;52.648;4.764;2024-03-02T09:38:57;100090.91;;;11.35;60.96
64388;BME280;50709;52.648;4.764;2024-03-02T09:41:23;100095.09;;;10.76;60.57
64388;BME280;50709;52.648;4.764;2024-03-02T09:43:48;100081.59;;;11.15;60.47
64388;BME280;50709;52.648;4.764;2024-03-02T09:46:15;100100.03;;;11.01;58.84
64388;BME280;50709;52.648;4.764;2024-03-02T09:48:40;100103.03;;;10.66;59.05
64388;BME280;50709;52.648;4.764;2024-03-02T09:51:06;100099.47;;;10.76;59.42
64388;BME280;50709;52.648;4.764;2024-03-02T09:53:32;100018.66;;;10.64;59.49
64388;BME280;50709;52.648;4.764;2024-03-02T09:55:59;100096.00;;;11.45;60.21
64388;BME280;50709;52.648;4.764;2024-03-02T09:58:25;100092.16;;;11.06;58.70
64388;BME280;50709;52.648;4.764;2024-03-02T10:00:50;100089.78;;;11.56;59.22
64388;BME280;50709;52.648;4.764;2024-03-02T10:03:18;100097.13;;;11.90;59.08
64388;BME280;50709;52.648;4.764;2024-03-02T10:05:43;100104.31;;;11.77;58.42
64388;BME280;50709;52.648;4.764;2024-03-02T10:08:09;100102.06;;;12.11;58.68
64388;BME280;50709;52.648;4.764;2024-03-02T10:10:38;100105.91;;;11.86;57.67
64388;BME280;50709;52.648;4.764;2024-03-02T10:13:12;100076.69;;;11.56;56.59
64388;BME280;50709;52.648;4.764;2024-03-02T10:15:39;100117.72;;;11.51;56.90
64388;BME280;50709;52.648;4.764;2024-03-02T10:18:11;100082.75;;;11.58;57.49
64388;BME280;50709;52.648;4.764;2024-03-02T10:20:41;100119.75;;;11.95;57.88
64388;BME280;50709;52.648;4.764;2024-03-02T10:23:13;100106.84;;;12.39;57.69
64388;BME280;50709;52.648;4.764;2024-03-02T10:25:40;100109.28;;;11.95;55.79
64388;BME280;50709;52.648;4.764;2024-03-02T10:28:05;100104.03;;;11.97;56.44
64388;BME280;50709;52.648;4.764;2024-03-02T10:30:34;100101.09;;;12.16;55.51
64388;BME280;50709;52.648;4.764;2024-03-02T10:33:01;100105.13;;;12.37;56.85
64388;BME280;50709;52.648;4.764;2024-03-02T10:35:27;100107.91;;;12.77;57.85
64388;BME280;50709;52.648;4.764;2024-03-02T10:37:53;100085.47;;;11.52;54.75
64388;BME280;50709;52.648;4.764;2024-03-02T10:40:21;100117.91;;;12.02;56.32
64388;BME280;50709;52.648;4.764;2024-03-02T10:42:47;100113.72;;;11.90;55.74
64388;BME280;50709;52.648;4.764;2024-03-02T10:45:15;100122.47;;;11.86;54.99
64388;BME280;50709;52.648;4.764;2024-03-02T10:47:43;100121.81;;;11.72;55.78
64388;BME280;50709;52.648;4.764;2024-03-02T10:50:10;100101.41;;;11.99;56.30
64388;BME280;50709;52.648;4.764;2024-03-02T10:52:36;100108.75;;;11.72;55.84
64388;BME280;50709;52.648;4.764;2024-03-02T10:55:02;100104.75;;;12.07;55.46
64388;BME280;50709;52.648;4.764;2024-03-02T10:57:35;100087.25;;;12.60;56.27
64388;BME280;50709;52.648;4.764;2024-03-02T11:00:05;100086.16;;;12.72;54.79
64388;BME280;50709;52.648;4.764;2024-03-02T11:02:32;100089.72;;;12.68;55.78
64388;BME280;50709;52.648;4.764;2024-03-02T11:05:00;100064.81;;;12.45;54.78
64388;BME280;50709;52.648;4.764;2024-03-02T11:07:29;100088.81;;;12.71;55.03
64388;BME280;50709;52.648;4.764;2024-03-02T11:09:59;100097.00;;;12.54;53.54
64388;BME280;50709;52.648;4.764;2024-03-02T11:13:05;100105.59;;;12.07;53.32
64388;BME280;50709;52.648;4.764;2024-03-02T11:15:34;100083.81;;;13.04;54.30
64388;BME280;50709;52.648;4.764;2024-03-02T11:18:04;100084.34;;;13.21;53.76
64388;BME280;50709;52.648;4.764;2024-03-02T11:20:38;100088.25;;;13.00;55.74
64388;BME280;50709;52.648;4.764;2024-03-02T11:23:08;100086.94;;;12.29;54.17
64388;BME280;50709;52.648;4.764;2024-03-02T11:25:34;100055.41;;;12.84;54.95
64388;BME280;50709;52.648;4.764;2024-03-02T11:28:04;100084.38;;;12.74;53.97
64388;BME280;50709;52.648;4.764;2024-03-02T11:33:05;100087.84;;;13.20;53.25
64388;BME280;50709;52.648;4.764;2024-03-02T11:35:45;100089.09;;;13.01;53.47
64388;BME280;50709;52.648;4.764;2024-03-02T11:38:12;100089.28;;;12.91;53.21
64388;BME280;50709;52.648;4.764;2024-03-02T11:40:41;100096.38;;;12.39;53.89
64388;BME280;50709;52.648;4.764;2024-03-02T11:43:07;100081.66;;;12.31;53.06
64388;BME280;50709;52.648;4.764;2024-03-02T11:45:33;100071.72;;;12.51;53.41
64388;BME280;50709;52.648;4.764;2024-03-02T11:47:59;100074.44;;;12.92;53.51
64388;BME280;50709;52.648;4.764;2024-03-02T11:50:42;100081.50;;;13.32;53.96
64388;BME280;50709;52.648;4.764;2024-03-02T11:53:09;100070.28;;;13.24;53.35
64388;BME280;50709;52.648;4.764;2024-03-02T11:55:39;100065.03;;;14.02;52.77
64388;BME280;50709;52.648;4.764;2024-03-02T11:58:15;100070.84;;;13.79;51.76
64388;BME280;50709;52.648;4.764;2024-03-02T12:00:46;100074.34;;;13.40;50.92
64388;BME280;50709;52.648;4.764;2024-03-02T12:03:13;100078.47;;;13.51;49.25
64388;BME280;50709;52.648;4.764;2024-03-02T12:05:39;100072.78;;;12.88;50.67
64388;BME280;50709;52.648;4.764;2024-03-02T12:08:06;100065.56;;;13.43;50.71
64388;BME280;50709;52.648;4.764;2024-03-02T12:10:33;100063.66;;;13.48;50.15
64388;BME280;50709;52.648;4.764;2024-03-02T12:13:07;100053.00;;;13.93;49.86
64388;BME280;50709;52.648;4.764;2024-03-02T12:15:37;100066.44;;;13.81;50.19
64388;BME280;50709;52.648;4.764;2024-03-02T12:18:03;100012.78;;;13.16;49.15
64388;BME280;50709;52.648;4.764;2024-03-02T12:20:30;100059.56;;;13.75;49.39
64388;BME280;50709;52.648;4.764;2024-03-02T12:23:02;100066.13;;;13.56;48.37
64388;BME280;50709;52.648;4.764;2024-03-02T12:25:28;100065.84;;;13.27;47.75
64388;BME280;50709;52.648;4.764;2024-03-02T12:27:57;100043.88;;;13.72;49.16
64388;BME280;50709;52.648;4.764;2024-03-02T12:30:26;100031.84;;;13.63;49.46
64388;BME280;50709;52.648;4.764;2024-03-02T12:32:52;100054.06;;;13.86;49.90
64388;BME280;50709;52.648;4.764;2024-03-02T12:35:18;100053.72;;;13.22;48.15
64388;BME280;50709;52.648;4.764;2024-03-02T12:37:51;100038.78;;;13.66;48.93
64388;BME280;50709;52.648;4.764;2024-03-02T12:40:17;100040.19;;;13.81;48.34
64388;BME280;50709;52.648;4.764;2024-03-02T12:42:47;100047.47;;;13.68;49.36
64388;BME280;50709;52.648;4.764;2024-03-02T12:45:13;100025.81;;;13.96;48.57
64388;BME280;50709;52.648;4.764;2024-03-02T12:47:40;100012.69;;;13.96;47.97
64388;BME280;50709;52.648;4.764;2024-03-02T12:50:07;100005.25;;;14.13;47.52
64388;BME280;50709;52.648;4.764;2024-03-02T12:52:33;100016.19;;;13.60;45.41
64388;BME280;50709;52.648;4.764;2024-03-02T12:55:04;99979.16;;;14.07;46.79
64388;BME280;50709;52.648;4.764;2024-03-02T12:57:33;100008.22;;;14.34;46.46
64388;BME280;50709;52.648;4.764;2024-03-02T12:59:59;100006.13;;;14.47;47.73
64388;BME280;50709;52.648;4.764;2024-03-02T13:02:28;99996.91;;;14.30;46.56